createdAt,value
2017-06-01T00:00:48.892Z,12
2017-06-01T00:02:01.299Z,12
2017-06-01T00:03:13.227Z,12
2017-06-01T00:04:40.179Z,12
2017-06-01T00:05:52.599Z,4
2017-06-01T00:07:05.006Z,16
2017-06-01T00:08:18.106Z,12
2017-06-01T00:09:31.004Z,12
2017-06-01T00:10:43.905Z,12
2017-06-01T00:11:56.805Z,12
2017-06-01T00:13:09.704Z,12
2017-06-01T00:14:22.802Z,12
2017-06-01T00:15:35.212Z,12
2017-06-01T00:16:48.112Z,12
2017-06-01T00:18:01.007Z,12
2017-06-01T00:19:12.929Z,12
2017-06-01T00:20:26.026Z,12
2017-06-01T00:21:38.927Z,12
2017-06-01T00:22:51.335Z,12
2017-06-01T00:24:03.255Z,12
2017-06-01T00:25:16.155Z,12
2017-06-01T00:26:28.072Z,12
2017-06-01T00:27:40.477Z,12
2017-06-01T00:28:53.378Z,12
2017-06-01T00:30:06.278Z,8
2017-06-01T00:31:32.252Z,12
2017-06-01T00:32:45.147Z,12
2017-06-01T00:33:57.559Z,12
2017-06-01T00:35:10.670Z,12
2017-06-01T00:36:23.098Z,12
2017-06-01T00:37:35.990Z,12
2017-06-01T00:38:48.418Z,12
2017-06-01T00:40:00.827Z,12
2017-06-01T00:41:13.435Z,12
2017-06-01T00:42:25.362Z,12
2017-06-01T00:43:38.270Z,12
2017-06-01T00:44:51.167Z,8
2017-06-01T00:46:03.576Z,4
2017-06-01T00:47:16.190Z,16
2017-06-01T00:48:28.597Z,12
2017-06-01T00:49:41.494Z,12
2017-06-01T00:50:53.413Z,12
2017-06-01T00:52:05.825Z,12
2017-06-01T00:53:18.234Z,4
2017-06-01T00:54:31.132Z,16
2017-06-01T00:55:44.048Z,12
2017-06-01T00:56:56.460Z,12
2017-06-01T00:58:09.360Z,8
2017-06-01T00:59:22.260Z,12
2017-06-01T01:00:34.669Z,12
2017-06-01T01:01:47.076Z,12
2017-06-01T01:02:59.483Z,8
2017-06-01T01:04:12.386Z,12
2017-06-01T01:05:24.793Z,12
2017-06-01T01:06:37.209Z,12
2017-06-01T01:07:50.117Z,12
2017-06-01T01:09:03.016Z,12
2017-06-01T01:10:15.430Z,12
2017-06-01T01:11:27.846Z,12
2017-06-01T01:12:40.745Z,12
2017-06-01T01:13:53.647Z,12
2017-06-01T01:15:06.543Z,12
2017-06-01T01:16:18.954Z,4
2017-06-01T01:17:31.367Z,16
2017-06-01T01:18:44.353Z,12
2017-06-01T01:19:57.165Z,12
2017-06-01T01:21:09.966Z,12
2017-06-01T01:22:22.268Z,12
2017-06-01T01:23:34.089Z,12
2017-06-01T01:24:47.086Z,12
2017-06-01T01:25:59.391Z,16
2017-06-01T01:27:12.174Z,12
2017-06-01T01:28:24.962Z,4
2017-06-01T01:29:37.262Z,12
2017-06-01T01:30:50.047Z,12
2017-06-01T01:32:02.825Z,12
2017-06-01T01:33:14.166Z,12
2017-06-01T01:34:26.945Z,4
2017-06-01T01:35:39.926Z,4
2017-06-01T01:36:51.261Z,16
2017-06-01T01:38:04.037Z,16
2017-06-01T01:39:16.817Z,12
2017-06-01T01:40:29.121Z,12
2017-06-01T01:41:41.898Z,12
2017-06-01T01:42:54.683Z,12
2017-06-01T01:44:07.463Z,12
2017-06-01T01:45:18.797Z,8
2017-06-01T01:46:30.624Z,12
2017-06-01T01:47:43.404Z,12
2017-06-01T01:48:56.179Z,12
2017-06-01T01:50:08.956Z,12
2017-06-01T01:51:21.747Z,12
2017-06-01T01:52:34.043Z,12
2017-06-01T01:53:46.822Z,12
2017-06-01T01:54:59.609Z,12
2017-06-01T01:56:12.389Z,12
2017-06-01T01:57:24.689Z,12
2017-06-01T01:58:36.989Z,12
2017-06-01T01:59:49.843Z,12
2017-06-01T02:01:02.620Z,12
2017-06-01T02:02:14.925Z,12
2017-06-01T02:03:41.781Z,12
2017-06-01T02:04:53.725Z,12
2017-06-01T02:06:06.134Z,12
2017-06-01T02:07:18.544Z,12
2017-06-01T02:08:30.960Z,12
2017-06-01T02:09:43.881Z,4
2017-06-01T02:10:56.290Z,12
2017-06-01T02:12:09.186Z,12
2017-06-01T02:13:21.842Z,12
2017-06-01T02:14:33.777Z,12
2017-06-01T02:15:46.680Z,12
2017-06-01T02:16:59.580Z,12
2017-06-01T02:18:12.568Z,12
2017-06-01T02:19:24.970Z,12
2017-06-01T02:20:37.409Z,12
2017-06-01T02:21:50.308Z,12
2017-06-01T02:23:03.209Z,12
2017-06-01T02:24:14.833Z,12
2017-06-01T02:25:27.728Z,12
2017-06-01T02:26:40.134Z,12
2017-06-01T02:27:53.030Z,12
2017-06-01T02:29:05.936Z,12
2017-06-01T02:30:18.394Z,12
2017-06-01T02:31:30.312Z,12
2017-06-01T02:32:43.207Z,12
2017-06-01T02:33:56.099Z,12
2017-06-01T02:35:23.050Z,12
2017-06-01T02:36:35.949Z,12
2017-06-01T02:37:48.927Z,12
2017-06-01T02:39:01.823Z,12
2017-06-01T02:40:14.228Z,8
2017-06-01T02:41:27.128Z,12
2017-06-01T02:42:40.026Z,16
2017-06-01T02:43:52.935Z,12
2017-06-01T02:45:05.837Z,12
2017-06-01T02:46:19.533Z,12
2017-06-01T02:47:31.941Z,12
2017-06-01T02:48:44.844Z,12
2017-06-01T02:49:57.753Z,12
2017-06-01T02:51:09.886Z,12
2017-06-01T02:52:21.820Z,12
2017-06-01T02:53:34.737Z,12
2017-06-01T02:54:47.665Z,12
2017-06-01T02:56:00.090Z,12
2017-06-01T02:57:12.720Z,12
2017-06-01T02:58:24.740Z,12
2017-06-01T02:59:37.655Z,12
2017-06-01T03:00:50.575Z,12
2017-06-01T03:02:03.699Z,12
2017-06-01T03:03:16.139Z,12
2017-06-01T03:04:29.059Z,12
2017-06-01T03:05:42.031Z,12
2017-06-01T03:06:54.460Z,12
2017-06-01T03:08:07.376Z,12
2017-06-01T03:09:20.295Z,12
2017-06-01T03:10:33.208Z,12
2017-06-01T03:11:46.121Z,8
2017-06-01T03:12:58.768Z,12
2017-06-01T03:14:11.687Z,12
2017-06-01T03:15:24.113Z,12
2017-06-01T03:16:36.543Z,4
2017-06-01T03:17:49.465Z,4
2017-06-01T03:19:01.888Z,12
2017-06-01T03:20:14.809Z,12
2017-06-01T03:21:27.239Z,12
2017-06-01T03:22:40.157Z,12
2017-06-01T03:23:53.279Z,12
2017-06-01T03:25:05.706Z,12
2017-06-01T03:26:18.622Z,12
2017-06-01T03:27:31.055Z,12
2017-06-01T03:28:43.969Z,12
2017-06-01T03:29:56.394Z,12
2017-06-01T03:31:09.312Z,12
2017-06-01T03:32:21.755Z,12
2017-06-01T03:33:34.183Z,12
2017-06-01T03:34:47.300Z,12
2017-06-01T03:36:00.223Z,12
2017-06-01T03:37:12.652Z,12
2017-06-01T03:38:25.574Z,12
2017-06-01T03:39:37.510Z,12
2017-06-01T03:40:50.622Z,12
2017-06-01T03:42:03.542Z,12
2017-06-01T03:43:15.968Z,12
2017-06-01T03:44:28.392Z,12
2017-06-01T03:45:41.509Z,12
2017-06-01T03:46:54.426Z,12
2017-06-01T03:48:07.348Z,12
2017-06-01T03:49:18.799Z,12
2017-06-01T03:50:31.230Z,12
2017-06-01T03:51:43.652Z,12
2017-06-01T03:52:56.079Z,12
2017-06-01T03:54:08.503Z,12
2017-06-01T03:55:21.417Z,12
2017-06-01T03:56:34.335Z,12
2017-06-01T03:57:47.264Z,12
2017-06-01T03:59:00.222Z,12
2017-06-01T04:00:12.166Z,12
2017-06-01T04:01:25.087Z,12
2017-06-01T04:02:38.026Z,12
2017-06-01T04:03:50.947Z,12
2017-06-01T04:05:02.886Z,12
2017-06-01T04:06:15.364Z,12
2017-06-01T04:07:27.794Z,12
2017-06-01T04:08:40.709Z,12
2017-06-01T04:09:53.624Z,12
2017-06-01T04:11:05.560Z,12
2017-06-01T04:12:18.477Z,12
2017-06-01T04:13:31.399Z,12
2017-06-01T04:14:43.825Z,12
2017-06-01T04:15:56.252Z,12
2017-06-01T04:17:08.677Z,12
2017-06-01T04:18:21.645Z,12
2017-06-01T04:19:34.563Z,8
2017-06-01T04:20:46.995Z,12
2017-06-01T04:21:59.419Z,4
2017-06-01T04:23:11.845Z,12
2017-06-01T04:24:24.761Z,8
2017-06-01T04:25:37.191Z,12
2017-06-01T04:26:50.117Z,12
2017-06-01T04:28:03.058Z,12
2017-06-01T04:29:15.976Z,12
2017-06-01T04:30:27.911Z,12
2017-06-01T04:31:39.845Z,12
2017-06-01T04:32:52.764Z,8
2017-06-01T04:34:05.190Z,12
2017-06-01T04:35:18.308Z,12
2017-06-01T04:36:31.234Z,12
2017-06-01T04:37:43.658Z,12
2017-06-01T04:38:56.575Z,12
2017-06-01T04:40:09.208Z,12
2017-06-01T04:41:21.631Z,12
2017-06-01T04:42:34.066Z,12
2017-06-01T04:43:46.994Z,12
2017-06-01T04:44:59.915Z,12
2017-06-01T04:46:12.834Z,12
2017-06-01T04:47:24.281Z,12
2017-06-01T04:48:37.370Z,12
2017-06-01T04:49:49.842Z,12
2017-06-01T04:51:02.772Z,4
2017-06-01T04:52:15.695Z,12
2017-06-01T04:53:28.121Z,12
2017-06-01T04:54:41.041Z,12
2017-06-01T04:57:20.645Z,12
2017-06-01T04:58:33.559Z,12
2017-06-01T04:59:46.532Z,12
2017-06-01T05:00:59.450Z,12
2017-06-01T05:02:11.627Z,12
2017-06-01T05:03:24.626Z,4
2017-06-01T05:04:37.027Z,12
2017-06-01T05:05:49.889Z,12
2017-06-01T05:07:02.753Z,12
2017-06-01T05:08:15.325Z,12
2017-06-01T05:09:28.182Z,12
2017-06-01T05:10:41.047Z,12
2017-06-01T05:11:53.434Z,12
2017-06-01T05:13:05.809Z,12
2017-06-01T05:14:18.668Z,12
2017-06-01T05:15:31.040Z,12
2017-06-01T05:16:43.904Z,12
2017-06-01T05:17:56.274Z,12
2017-06-01T05:19:09.140Z,12
2017-06-01T05:20:21.512Z,12
2017-06-01T05:21:33.883Z,12
2017-06-01T05:22:46.260Z,12
2017-06-01T05:23:58.152Z,12
2017-06-01T05:25:10.523Z,12
2017-06-01T05:26:22.921Z,12
2017-06-01T05:27:35.296Z,12
2017-06-01T05:28:47.669Z,12
2017-06-01T05:30:00.727Z,12
2017-06-01T05:31:13.597Z,12
2017-06-01T05:32:25.972Z,12
2017-06-01T05:33:38.350Z,12
2017-06-01T05:34:51.211Z,12
2017-06-01T05:36:04.073Z,12
2017-06-01T05:37:15.917Z,12
2017-06-01T05:38:28.694Z,12
2017-06-01T05:39:41.474Z,12
2017-06-01T05:40:53.493Z,12
2017-06-01T05:42:06.273Z,12
2017-06-01T05:43:18.578Z,12
2017-06-01T05:44:30.877Z,12
2017-06-01T05:45:43.371Z,12
2017-06-01T05:46:55.675Z,12
2017-06-01T05:48:08.453Z,12
2017-06-01T05:49:21.329Z,12
2017-06-01T05:50:34.243Z,12
2017-06-01T05:51:46.385Z,4
2017-06-01T05:52:58.815Z,12
2017-06-01T05:54:11.730Z,12
2017-06-01T05:55:24.159Z,12
2017-06-01T05:56:36.785Z,12
2017-06-01T05:57:49.211Z,12
2017-06-01T05:59:01.671Z,12
2017-06-01T06:00:14.145Z,12
2017-06-01T06:01:27.059Z,12
2017-06-01T06:02:40.178Z,12
2017-06-01T06:03:52.607Z,8
2017-06-01T06:05:05.529Z,12
2017-06-01T06:06:17.466Z,12
2017-06-01T06:07:30.090Z,12
2017-06-01T06:08:42.034Z,12
2017-06-01T06:09:54.952Z,12
2017-06-01T06:11:07.870Z,16
2017-06-01T06:12:19.813Z,12
2017-06-01T06:13:33.527Z,12
2017-06-01T06:14:45.951Z,12
2017-06-01T06:15:58.873Z,12
2017-06-01T06:17:11.791Z,12
2017-06-01T06:18:24.707Z,12
2017-06-01T06:19:36.645Z,12
2017-06-01T06:20:49.079Z,12
2017-06-01T06:22:01.995Z,12
2017-06-01T06:23:14.443Z,12
2017-06-01T06:24:27.560Z,12
2017-06-01T06:25:39.986Z,12
2017-06-01T06:26:52.904Z,12
2017-06-01T06:28:05.819Z,12
2017-06-01T06:29:18.453Z,12
2017-06-01T06:30:31.367Z,12
2017-06-01T06:31:43.794Z,12
2017-06-01T06:32:56.222Z,12
2017-06-01T06:34:08.153Z,12
2017-06-01T06:35:20.297Z,12
2017-06-01T06:36:32.723Z,12
2017-06-01T06:37:45.149Z,12
2017-06-01T06:38:57.582Z,12
2017-06-01T06:40:10.699Z,12
2017-06-01T06:41:23.618Z,12
2017-06-01T06:42:36.052Z,4
2017-06-01T06:43:47.989Z,12
2017-06-01T06:45:00.907Z,12
2017-06-01T06:46:13.048Z,12
2017-06-01T06:47:25.474Z,8
2017-06-01T06:48:36.927Z,12
2017-06-01T06:49:48.867Z,12
2017-06-01T06:51:01.501Z,12
2017-06-01T06:52:13.932Z,12
2017-06-01T06:53:26.851Z,12
2017-06-01T06:54:39.282Z,12
2017-06-01T06:55:52.216Z,12
2017-06-01T06:57:05.332Z,12
2017-06-01T06:58:17.766Z,12
2017-06-01T06:59:30.682Z,12
2017-06-01T07:00:43.600Z,12
2017-06-01T07:01:56.030Z,12
2017-06-01T07:03:08.944Z,12
2017-06-01T07:04:21.867Z,12
2017-06-01T07:05:34.786Z,12
2017-06-01T07:06:47.711Z,12
2017-06-01T07:08:00.137Z,12
2017-06-01T07:09:13.055Z,12
2017-06-01T07:10:25.987Z,12
2017-06-01T07:11:38.918Z,12
2017-06-01T07:13:05.391Z,12
2017-06-01T07:14:17.816Z,12
2017-06-01T07:15:30.738Z,12
2017-06-01T07:16:42.672Z,12
2017-06-01T07:17:55.299Z,12
2017-06-01T07:19:08.206Z,12
2017-06-01T07:20:21.112Z,12
2017-06-01T07:21:34.014Z,12
2017-06-01T07:22:46.911Z,12
2017-06-01T07:24:00.013Z,12
2017-06-01T07:25:12.907Z,12
2017-06-01T07:26:25.861Z,12
2017-06-01T07:27:38.842Z,12
2017-06-01T07:28:51.530Z,12
2017-06-01T07:30:04.015Z,12
2017-06-01T07:31:16.503Z,12
2017-06-01T07:32:29.003Z,12
2017-06-01T07:33:41.985Z,12
2017-06-01T07:34:53.983Z,12
2017-06-01T07:36:06.964Z,12
2017-06-01T07:37:19.944Z,12
2017-06-01T07:38:32.439Z,12
2017-06-01T07:39:44.945Z,12
2017-06-01T07:40:57.927Z,12
2017-06-01T07:42:10.913Z,12
2017-06-01T07:43:23.903Z,12
2017-06-01T07:44:36.587Z,12
2017-06-01T07:45:49.074Z,12
2017-06-01T07:47:01.068Z,12
2017-06-01T07:48:14.054Z,12
2017-06-01T07:49:26.050Z,12
2017-06-01T07:50:38.540Z,12
2017-06-01T07:51:51.521Z,12
2017-06-01T07:53:03.018Z,12
2017-06-01T07:54:15.513Z,12
2017-06-01T07:55:27.503Z,12
2017-06-01T07:56:40.684Z,12
2017-06-01T07:57:53.667Z,12
2017-06-01T07:59:06.650Z,12
2017-06-01T08:00:18.642Z,12
2017-06-01T08:01:32.456Z,12
2017-06-01T08:02:45.382Z,12
2017-06-01T08:03:58.264Z,12
2017-06-01T08:05:10.087Z,12
2017-06-01T08:07:49.448Z,12
2017-06-01T08:09:02.225Z,12
2017-06-01T08:10:14.045Z,12
2017-06-01T08:11:26.346Z,12
2017-06-01T08:12:39.324Z,12
2017-06-01T08:13:51.678Z,12
2017-06-01T08:15:04.459Z,12
2017-06-01T08:16:17.243Z,12
2017-06-01T08:17:29.545Z,12
2017-06-01T08:18:42.044Z,12
2017-06-01T08:19:54.823Z,12
2017-06-01T08:21:07.603Z,12
2017-06-01T08:22:19.901Z,12
2017-06-01T08:23:31.918Z,12
2017-06-01T08:24:44.217Z,12
2017-06-01T08:25:56.516Z,12
2017-06-01T08:27:09.301Z,12
2017-06-01T08:28:22.080Z,12
2017-06-01T08:29:35.066Z,12
2017-06-01T08:30:47.847Z,12
2017-06-01T08:32:00.151Z,12
2017-06-01T08:33:11.976Z,12
2017-06-01T08:34:24.277Z,12
2017-06-01T08:35:36.576Z,12
2017-06-01T08:36:48.877Z,12
2017-06-01T08:38:01.173Z,12
2017-06-01T08:39:12.987Z,4
2017-06-01T08:40:25.008Z,16
2017-06-01T08:41:37.788Z,16
2017-06-01T08:42:50.091Z,12
2017-06-01T08:44:01.907Z,12
2017-06-01T08:45:14.691Z,12
2017-06-01T08:46:27.671Z,12
2017-06-01T08:47:39.970Z,12
2017-06-01T08:48:52.751Z,12
2017-06-01T08:50:05.126Z,12
2017-06-01T08:51:17.542Z,12
2017-06-01T08:52:29.950Z,12
2017-06-01T08:53:42.850Z,12
2017-06-01T08:54:55.747Z,12
2017-06-01T08:56:08.645Z,12
2017-06-01T08:57:20.764Z,12
2017-06-01T08:58:33.661Z,12
2017-06-01T08:59:46.075Z,8
2017-06-01T09:00:58.976Z,12
2017-06-01T09:02:11.588Z,12
2017-06-01T09:03:24.002Z,12
2017-06-01T09:04:36.904Z,12
2017-06-01T09:05:48.822Z,12
2017-06-01T09:07:01.729Z,12
2017-06-01T09:08:14.155Z,12
2017-06-01T09:09:26.567Z,12
2017-06-01T09:10:39.465Z,4
2017-06-01T09:11:52.369Z,4
2017-06-01T09:13:04.991Z,4
2017-06-01T09:14:16.907Z,16
2017-06-01T09:15:29.318Z,12
2017-06-01T09:16:40.265Z,12
2017-06-01T09:17:53.169Z,12
2017-06-01T09:19:05.780Z,12
2017-06-01T09:20:18.189Z,12
2017-06-01T09:21:31.088Z,12
2017-06-01T09:22:43.989Z,4
2017-06-01T09:23:55.426Z,8
2017-06-01T09:25:08.033Z,16
2017-06-01T09:26:19.465Z,16
2017-06-01T09:27:32.369Z,12
2017-06-01T09:28:45.267Z,12
2017-06-01T09:29:57.876Z,16
2017-06-01T09:31:10.769Z,12
2017-06-01T09:32:23.187Z,12
2017-06-01T09:33:36.084Z,16
2017-06-01T09:34:48.996Z,16
2017-06-01T09:36:00.930Z,20
2017-06-01T09:37:13.360Z,16
2017-06-01T09:38:26.276Z,16
2017-06-01T09:39:39.203Z,20
2017-06-01T09:40:51.633Z,20
2017-06-01T09:42:04.057Z,24
2017-06-01T09:43:15.991Z,24
2017-06-01T09:44:27.931Z,12
2017-06-01T09:45:40.848Z,12
2017-06-01T09:46:53.763Z,16
2017-06-01T09:48:05.733Z,16
2017-06-01T09:49:18.651Z,20
2017-06-01T09:50:30.097Z,20
2017-06-01T09:51:43.218Z,24
2017-06-01T09:52:56.163Z,24
2017-06-01T09:54:09.083Z,28
2017-06-01T09:55:22.003Z,28
2017-06-01T09:56:34.631Z,32
2017-06-01T09:57:47.075Z,36
2017-06-01T09:58:59.991Z,40
2017-06-01T10:00:12.422Z,40
2017-06-01T10:01:25.346Z,48
2017-06-01T10:02:38.464Z,52
2017-06-01T10:03:50.401Z,48
2017-06-01T10:05:02.826Z,48
2017-06-01T10:06:15.254Z,52
2017-06-01T10:07:28.179Z,56
2017-06-01T10:08:40.114Z,60
2017-06-01T10:09:53.036Z,68
2017-06-01T10:11:05.470Z,76
2017-06-01T10:12:17.409Z,88
2017-06-01T10:13:30.034Z,92
2017-06-01T10:14:42.951Z,88
2017-06-01T10:15:55.378Z,84
2017-06-01T10:17:07.311Z,88
2017-06-01T10:18:18.754Z,92
2017-06-01T10:19:31.374Z,88
2017-06-01T10:20:43.788Z,84
2017-06-01T10:21:56.197Z,80
2017-06-01T10:23:08.653Z,84
2017-06-01T10:24:21.274Z,80
2017-06-01T10:25:34.173Z,84
2017-06-01T10:26:47.081Z,96
2017-06-01T10:27:59.975Z,104
2017-06-01T10:29:11.903Z,112
2017-06-01T10:30:24.311Z,124
2017-06-01T10:31:37.210Z,136
2017-06-01T10:32:50.126Z,144
2017-06-01T10:34:03.026Z,148
2017-06-01T10:35:15.143Z,144
2017-06-01T10:36:27.065Z,148
2017-06-01T10:37:39.473Z,164
2017-06-01T10:38:51.880Z,168
2017-06-01T10:40:04.777Z,168
2017-06-01T10:41:17.886Z,152
2017-06-01T10:42:30.290Z,136
2017-06-01T10:43:43.194Z,132
2017-06-01T10:44:55.602Z,144
2017-06-01T10:46:08.213Z,144
2017-06-01T10:47:20.135Z,144
2017-06-01T10:48:32.545Z,148
2017-06-01T10:49:45.443Z,144
2017-06-01T10:50:58.339Z,144
2017-06-01T10:52:10.947Z,140
2017-06-01T10:53:22.383Z,144
2017-06-01T10:54:34.799Z,156
2017-06-01T10:55:47.219Z,160
2017-06-01T10:56:59.140Z,188
2017-06-01T10:58:12.036Z,216
2017-06-01T10:59:24.453Z,228
2017-06-01T11:00:36.863Z,228
2017-06-01T11:01:49.764Z,228
2017-06-01T11:03:02.374Z,228
2017-06-01T11:04:14.306Z,220
2017-06-01T11:05:26.733Z,204
2017-06-01T11:06:39.169Z,212
2017-06-01T11:07:52.293Z,224
2017-06-01T11:09:05.212Z,224
2017-06-01T11:10:17.639Z,224
2017-06-01T11:11:30.068Z,224
2017-06-01T11:12:42.984Z,236
2017-06-01T11:13:56.103Z,252
2017-06-01T11:15:09.025Z,272
2017-06-01T11:16:21.979Z,332
2017-06-01T11:17:34.411Z,408
2017-06-01T11:18:46.840Z,476
2017-06-01T11:19:59.754Z,500
2017-06-01T11:21:12.673Z,524
2017-06-01T11:22:24.607Z,584
2017-06-01T11:23:37.032Z,644
2017-06-01T11:24:49.665Z,676
2017-06-01T11:26:02.090Z,776
2017-06-01T11:27:14.522Z,924
2017-06-01T11:28:26.950Z,936
2017-06-01T11:29:40.067Z,516
2017-06-01T11:30:52.990Z,496
2017-06-01T11:32:05.909Z,536
2017-06-01T11:33:17.850Z,792
2017-06-01T11:34:31.064Z,920
2017-06-01T11:35:43.006Z,1124
2017-06-01T11:36:55.437Z,824
2017-06-01T11:38:07.369Z,540
2017-06-01T11:39:19.315Z,1260
2017-06-01T11:40:32.249Z,300
2017-06-01T11:41:44.191Z,240
2017-06-01T11:42:57.109Z,192
2017-06-01T11:44:09.535Z,136
2017-06-01T11:45:22.475Z,100
2017-06-01T11:46:35.104Z,72
2017-06-01T11:47:47.049Z,60
2017-06-01T11:48:59.968Z,80
2017-06-01T11:50:12.395Z,176
2017-06-01T11:51:25.028Z,236
2017-06-01T11:52:37.945Z,328
2017-06-01T11:53:50.372Z,356
2017-06-01T11:55:02.794Z,248
2017-06-01T11:56:15.224Z,176
2017-06-01T11:57:28.148Z,204
2017-06-01T11:58:40.580Z,224
2017-06-01T11:59:53.009Z,352
2017-06-01T12:01:05.436Z,368
2017-06-01T12:02:18.063Z,252
2017-06-01T12:03:30.488Z,224
2017-06-01T12:04:43.409Z,184
2017-06-01T12:05:56.333Z,176
2017-06-01T12:07:08.760Z,180
2017-06-01T12:08:20.698Z,144
2017-06-01T12:09:33.624Z,164
2017-06-01T12:10:46.056Z,208
2017-06-01T12:11:58.479Z,308
2017-06-01T12:13:11.398Z,332
2017-06-01T12:14:23.824Z,320
2017-06-01T12:15:36.256Z,264
2017-06-01T12:16:49.187Z,216
2017-06-01T12:18:02.102Z,176
2017-06-01T12:19:15.020Z,236
2017-06-01T12:20:26.953Z,252
2017-06-01T12:21:38.954Z,324
2017-06-01T12:22:51.381Z,340
2017-06-01T12:24:03.808Z,248
2017-06-01T12:25:16.239Z,280
2017-06-01T12:26:27.681Z,244
2017-06-01T12:27:40.597Z,232
2017-06-01T12:28:53.574Z,280
2017-06-01T12:30:06.201Z,304
2017-06-01T12:31:18.139Z,332
2017-06-01T12:32:30.573Z,228
2017-06-01T12:33:43.498Z,224
2017-06-01T12:34:56.314Z,180
2017-06-01T12:36:09.092Z,268
2017-06-01T12:37:21.876Z,200
2017-06-01T12:38:33.693Z,216
2017-06-01T12:39:45.992Z,288
2017-06-01T12:40:58.306Z,336
2017-06-01T12:42:11.091Z,244
2017-06-01T12:43:22.911Z,216
2017-06-01T12:44:35.688Z,236
2017-06-01T12:45:47.505Z,252
2017-06-01T12:47:00.287Z,264
2017-06-01T12:48:12.592Z,360
2017-06-01T12:49:24.908Z,496
2017-06-01T12:50:37.207Z,444
2017-06-01T12:51:50.000Z,432
2017-06-01T12:53:02.299Z,408
2017-06-01T12:54:15.085Z,260
2017-06-01T12:55:27.382Z,248
2017-06-01T12:56:39.877Z,264
2017-06-01T12:57:52.662Z,240
2017-06-01T12:59:05.446Z,188
2017-06-01T13:00:18.230Z,292
2017-06-01T13:01:31.012Z,392
2017-06-01T13:02:43.994Z,344
2017-06-01T13:03:56.777Z,304
2017-06-01T13:05:09.562Z,452
2017-06-01T13:06:21.866Z,432
2017-06-01T13:07:34.794Z,364
2017-06-01T13:08:47.096Z,212
2017-06-01T13:09:59.890Z,284
2017-06-01T13:11:12.193Z,296
2017-06-01T13:12:24.500Z,368
2017-06-01T13:13:37.301Z,540
2017-06-01T13:14:49.114Z,320
2017-06-01T13:16:01.409Z,316
2017-06-01T13:17:13.716Z,260
2017-06-01T13:18:26.013Z,288
2017-06-01T13:19:38.314Z,292
2017-06-01T13:20:50.635Z,508
2017-06-01T13:22:03.415Z,480
2017-06-01T13:23:14.273Z,460
2017-06-01T13:24:26.289Z,596
2017-06-01T13:25:39.092Z,676
2017-06-01T13:26:51.873Z,588
2017-06-01T13:28:04.661Z,624
2017-06-01T13:29:17.447Z,656
2017-06-01T13:30:30.427Z,536
2017-06-01T13:31:42.734Z,508
2017-06-01T13:32:55.516Z,404
2017-06-01T13:34:07.329Z,784
2017-06-01T13:35:19.145Z,896
2017-06-01T13:36:31.934Z,1400
2017-06-01T13:37:44.237Z,864
2017-06-01T13:38:56.885Z,648
2017-06-01T13:40:09.184Z,672
2017-06-01T13:41:21.486Z,588
2017-06-01T13:42:33.788Z,508
2017-06-01T13:43:46.098Z,412
2017-06-01T13:44:58.878Z,424
2017-06-01T13:46:11.661Z,592
2017-06-01T13:47:24.439Z,836
2017-06-01T13:48:36.739Z,852
2017-06-01T13:49:48.558Z,916
2017-06-01T13:51:01.346Z,1024
2017-06-01T13:52:13.657Z,740
2017-06-01T13:53:26.442Z,928
2017-06-01T13:54:39.221Z,968
2017-06-01T13:55:51.522Z,828
2017-06-01T13:57:04.302Z,884
2017-06-01T13:58:16.600Z,900
2017-06-01T13:59:29.384Z,924
2017-06-01T14:00:42.167Z,680
2017-06-01T14:01:53.501Z,1436
2017-06-01T14:03:05.800Z,1440
2017-06-01T14:04:18.097Z,820
2017-06-01T14:05:30.395Z,1572
2017-06-01T14:06:42.946Z,824
2017-06-01T14:07:55.725Z,1436
2017-06-01T14:09:08.031Z,1460
2017-06-01T14:10:20.814Z,1376
2017-06-01T14:11:33.594Z,1372
2017-06-01T14:12:46.777Z,776
2017-06-01T14:13:59.081Z,884
2017-06-01T14:15:11.378Z,1112
2017-06-01T14:16:24.171Z,1012
2017-06-01T14:17:35.989Z,1508
2017-06-01T14:18:48.769Z,1772
2017-06-01T14:20:01.554Z,768
2017-06-01T14:21:13.857Z,1784
2017-06-01T14:22:26.441Z,1244
2017-06-01T14:23:39.223Z,680
2017-06-01T14:24:51.527Z,612
2017-06-01T14:26:04.313Z,508
2017-06-01T14:27:16.620Z,760
2017-06-01T14:28:29.420Z,728
2017-06-01T14:29:42.205Z,600
2017-06-01T14:30:54.509Z,464
2017-06-01T14:32:07.293Z,576
2017-06-01T14:33:19.319Z,548
2017-06-01T14:34:32.101Z,528
2017-06-01T14:35:44.886Z,392
2017-06-01T14:36:57.187Z,312
2017-06-01T14:38:09.487Z,280
2017-06-01T14:39:22.274Z,248
2017-06-01T14:40:35.058Z,400
2017-06-01T14:41:47.366Z,832
2017-06-01T14:42:59.670Z,584
2017-06-01T14:44:25.565Z,948
2017-06-01T14:45:38.353Z,880
2017-06-01T14:46:50.651Z,932
2017-06-01T14:48:03.008Z,900
2017-06-01T14:49:14.415Z,792
2017-06-01T14:50:27.316Z,1040
2017-06-01T14:51:39.729Z,936
2017-06-01T14:52:52.141Z,908
2017-06-01T14:54:04.560Z,1124
2017-06-01T14:55:15.504Z,732
2017-06-01T14:56:28.405Z,764
2017-06-01T14:57:41.305Z,548
2017-06-01T14:58:53.715Z,492
2017-06-01T15:00:06.618Z,460
2017-06-01T15:01:19.524Z,444
2017-06-01T15:02:31.932Z,624
2017-06-01T15:03:44.843Z,696
2017-06-01T15:04:57.254Z,408
2017-06-01T15:06:09.664Z,532
2017-06-01T15:07:22.568Z,704
2017-06-01T15:08:34.979Z,596
2017-06-01T15:09:46.894Z,512
2017-06-01T15:11:00.000Z,484
2017-06-01T15:12:12.413Z,544
2017-06-01T15:13:24.837Z,568
2017-06-01T15:14:37.260Z,708
2017-06-01T15:15:49.673Z,732
2017-06-01T15:17:02.784Z,784
2017-06-01T15:18:15.466Z,564
2017-06-01T15:19:27.885Z,624
2017-06-01T15:20:40.298Z,456
2017-06-01T15:21:53.202Z,288
2017-06-01T15:23:05.612Z,280
2017-06-01T15:24:18.018Z,224
2017-06-01T15:25:30.427Z,232
2017-06-01T15:26:43.325Z,284
2017-06-01T15:27:55.733Z,508
2017-06-01T15:29:08.650Z,536
2017-06-01T15:30:20.082Z,468
2017-06-01T15:31:32.983Z,480
2017-06-01T15:32:45.397Z,452
2017-06-01T15:33:58.310Z,776
2017-06-01T15:35:10.233Z,764
2017-06-01T15:36:22.165Z,832
2017-06-01T15:37:35.069Z,732
2017-06-01T15:38:47.238Z,804
2017-06-01T15:39:59.648Z,924
2017-06-01T15:41:12.546Z,668
2017-06-01T15:42:25.463Z,908
2017-06-01T15:43:37.580Z,796
2017-06-01T15:44:49.992Z,972
2017-06-01T15:46:02.890Z,856
2017-06-01T15:47:14.810Z,820
2017-06-01T15:48:27.709Z,824
2017-06-01T15:49:40.612Z,764
2017-06-01T15:50:53.514Z,1112
2017-06-01T15:52:06.416Z,1128
2017-06-01T15:53:18.333Z,960
2017-06-01T15:54:31.231Z,928
2017-06-01T15:55:43.159Z,888
2017-06-01T15:56:56.065Z,744
2017-06-01T15:58:08.474Z,960
2017-06-01T15:59:21.374Z,656
2017-06-01T16:00:34.471Z,676
2017-06-01T16:01:47.363Z,1012
2017-06-01T16:03:00.277Z,824
2017-06-01T16:04:13.173Z,900
2017-06-01T16:05:25.579Z,792
2017-06-01T16:06:37.991Z,688
2017-06-01T16:07:50.888Z,752
2017-06-01T16:09:03.785Z,700
2017-06-01T16:10:15.719Z,780
2017-06-01T16:11:28.329Z,580
2017-06-01T16:12:40.733Z,708
2017-06-01T16:13:53.154Z,624
2017-06-01T16:15:05.560Z,572
2017-06-01T16:16:18.520Z,636
2017-06-01T16:17:31.434Z,696
2017-06-01T16:18:44.330Z,352
2017-06-01T16:19:57.225Z,244
2017-06-01T16:21:09.635Z,260
2017-06-01T16:22:22.247Z,416
2017-06-01T16:23:34.659Z,644
2017-06-01T16:24:47.120Z,456
2017-06-01T16:25:59.546Z,556
2017-06-01T16:27:11.954Z,736
2017-06-01T16:28:24.462Z,812
2017-06-01T16:29:37.006Z,732
2017-06-01T16:30:50.055Z,828
2017-06-01T16:32:02.597Z,864
2017-06-01T16:33:15.642Z,704
2017-06-01T16:34:28.684Z,688
2017-06-01T16:35:41.224Z,704
2017-06-01T16:36:54.268Z,668
2017-06-01T16:38:06.808Z,452
2017-06-01T16:39:18.857Z,484
2017-06-01T16:40:30.902Z,328
2017-06-01T16:41:43.944Z,420
2017-06-01T16:42:56.983Z,560
2017-06-01T16:44:09.028Z,624
2017-06-01T16:45:21.070Z,604
2017-06-01T16:46:34.114Z,452
2017-06-01T16:47:47.155Z,620
2017-06-01T16:49:00.210Z,544
2017-06-01T16:50:12.259Z,584
2017-06-01T16:51:24.795Z,520
2017-06-01T16:52:37.346Z,384
2017-06-01T16:53:50.384Z,532
2017-06-01T16:55:02.929Z,1064
2017-06-01T16:56:15.476Z,692
2017-06-01T16:57:28.016Z,460
2017-06-01T16:58:40.559Z,312
2017-06-01T16:59:53.598Z,116
2017-06-01T17:01:06.639Z,152
2017-06-01T17:02:19.675Z,224
2017-06-01T17:03:32.715Z,264
2017-06-01T17:04:45.666Z,636
2017-06-01T17:05:58.560Z,720